sensor_id;sensor_type;location;lat;lon;timestamp;P1;durP1;ratioP1;P2;durP2;ratioP2
70806;SDS011;58882;52.170;5.386;2023-09-07T00:01:00;10.27;;;3.97;;
70806;SDS011;58882;52.170;5.386;2023-09-07T00:03:31;18.73;;;5.10;;
70806;SDS011;58882;52.170;5.386;2023-09-07T00:05:59;8.10;;;4.95;;
70806;SDS011;58882;52.170;5.386;2023-09-07T00:08:26;10.13;;;4.90;;
70806;SDS011;58882;52.170;5.386;2023-09-07T00:10:52;9.40;;;4.57;;
70806;SDS011;58882;52.170;5.386;2023-09-07T00:13:19;9.68;;;4.80;;
70806;SDS011;58882;52.170;5.386;2023-09-07T00:15:46;8.40;;;4.75;;
70806;SDS011;58882;52.170;5.386;2023-09-07T00:18:13;8.55;;;5.20;;
70806;SDS011;58882;52.170;5.386;2023-09-07T00:20:42;8.57;;;5.18;;
70806;SDS011;58882;52.170;5.386;2023-09-07T00:23:09;8.00;;;4.97;;
70806;SDS011;58882;52.170;5.386;2023-09-07T00:25:36;10.10;;;5.28;;
70806;SDS011;58882;52.170;5.386;2023-09-07T00:28:03;8.23;;;4.72;;
70806;SDS011;58882;52.170;5.386;2023-09-07T00:30:30;9.38;;;5.07;;
70806;SDS011;58882;52.170;5.386;2023-09-07T00:32:57;10.70;;;5.20;;
70806;SDS011;58882;52.170;5.386;2023-09-07T00:35:24;11.52;;;5.50;;
70806;SDS011;58882;52.170;5.386;2023-09-07T00:37:51;9.18;;;5.40;;
70806;SDS011;58882;52.170;5.386;2023-09-07T00:40:18;8.60;;;5.28;;
70806;SDS011;58882;52.170;5.386;2023-09-07T00:42:44;10.52;;;5.80;;
70806;SDS011;58882;52.170;5.386;2023-09-07T00:45:11;8.93;;;5.57;;
70806;SDS011;58882;52.170;5.386;2023-09-07T00:47:39;9.75;;;5.47;;
70806;SDS011;58882;52.170;5.386;2023-09-07T00:50:07;9.63;;;5.60;;
70806;SDS011;58882;52.170;5.386;2023-09-07T00:52:34;8.55;;;5.53;;
70806;SDS011;58882;52.170;5.386;2023-09-07T00:55:06;9.20;;;5.82;;
70806;SDS011;58882;52.170;5.386;2023-09-07T00:57:34;9.80;;;6.30;;
70806;SDS011;58882;52.170;5.386;2023-09-07T01:00:03;9.57;;;6.18;;
70806;SDS011;58882;52.170;5.386;2023-09-07T01:02:33;10.38;;;5.63;;
70806;SDS011;58882;52.170;5.386;2023-09-07T01:05:03;10.52;;;5.60;;
70806;SDS011;58882;52.170;5.386;2023-09-07T01:07:38;10.07;;;5.80;;
70806;SDS011;58882;52.170;5.386;2023-09-07T01:10:12;9.50;;;5.80;;
70806;SDS011;58882;52.170;5.386;2023-09-07T01:12:40;11.75;;;5.72;;
70806;SDS011;58882;52.170;5.386;2023-09-07T01:15:07;9.85;;;5.97;;
70806;SDS011;58882;52.170;5.386;2023-09-07T01:17:34;10.27;;;5.85;;
70806;SDS011;58882;52.170;5.386;2023-09-07T01:20:04;9.68;;;5.78;;
70806;SDS011;58882;52.170;5.386;2023-09-07T01:22:38;9.48;;;6.07;;
70806;SDS011;58882;52.170;5.386;2023-09-07T01:25:05;10.00;;;6.00;;
70806;SDS011;58882;52.170;5.386;2023-09-07T01:27:33;10.48;;;6.03;;
70806;SDS011;58882;52.170;5.386;2023-09-07T01:30:01;10.60;;;6.45;;
70806;SDS011;58882;52.170;5.386;2023-09-07T01:32:31;10.43;;;6.38;;
70806;SDS011;58882;52.170;5.386;2023-09-07T01:34:58;9.63;;;6.00;;
70806;SDS011;58882;52.170;5.386;2023-09-07T01:37:28;12.70;;;6.90;;
70806;SDS011;58882;52.170;5.386;2023-09-07T01:39:55;10.05;;;6.28;;
70806;SDS011;58882;52.170;5.386;2023-09-07T01:42:22;10.27;;;6.10;;
70806;SDS011;58882;52.170;5.386;2023-09-07T01:44:48;10.95;;;6.45;;
70806;SDS011;58882;52.170;5.386;2023-09-07T01:47:15;11.20;;;6.38;;
70806;SDS011;58882;52.170;5.386;2023-09-07T01:49:42;15.00;;;6.00;;
70806;SDS011;58882;52.170;5.386;2023-09-07T01:52:09;11.80;;;6.60;;
70806;SDS011;58882;52.170;5.386;2023-09-07T01:54:36;11.68;;;6.38;;
70806;SDS011;58882;52.170;5.386;2023-09-07T01:57:03;10.50;;;6.35;;
70806;SDS011;58882;52.170;5.386;2023-09-07T01:59:30;10.98;;;6.55;;
70806;SDS011;58882;52.170;5.386;2023-09-07T02:01:57;10.50;;;6.25;;
70806;SDS011;58882;52.170;5.386;2023-09-07T02:04:24;11.30;;;6.75;;
70806;SDS011;58882;52.170;5.386;2023-09-07T02:06:51;12.65;;;6.18;;
70806;SDS011;58882;52.170;5.386;2023-09-07T02:09:18;9.40;;;6.03;;
70806;SDS011;58882;52.170;5.386;2023-09-07T02:11:45;11.38;;;6.45;;
70806;SDS011;58882;52.170;5.386;2023-09-07T02:14:11;10.50;;;6.03;;
70806;SDS011;58882;52.170;5.386;2023-09-07T02:16:39;12.77;;;6.25;;
70806;SDS011;58882;52.170;5.386;2023-09-07T02:19:06;11.98;;;6.72;;
70806;SDS011;58882;52.170;5.386;2023-09-07T02:21:33;11.63;;;6.60;;
70806;SDS011;58882;52.170;5.386;2023-09-07T02:24:00;10.23;;;6.10;;
70806;SDS011;58882;52.170;5.386;2023-09-07T02:26:27;9.75;;;6.18;;
70806;SDS011;58882;52.170;5.386;2023-09-07T02:28:53;11.70;;;6.68;;
70806;SDS011;58882;52.170;5.386;2023-09-07T02:31:20;12.07;;;6.25;;
70806;SDS011;58882;52.170;5.386;2023-09-07T02:33:47;10.57;;;6.13;;
70806;SDS011;58882;52.170;5.386;2023-09-07T02:36:14;11.60;;;6.97;;
70806;SDS011;58882;52.170;5.386;2023-09-07T02:38:41;12.02;;;5.80;;
70806;SDS011;58882;52.170;5.386;2023-09-07T02:41:08;9.75;;;6.03;;
70806;SDS011;58882;52.170;5.386;2023-09-07T02:43:35;9.32;;;5.30;;
70806;SDS011;58882;52.170;5.386;2023-09-07T02:46:02;11.25;;;6.00;;
70806;SDS011;58882;52.170;5.386;2023-09-07T02:48:28;10.30;;;5.65;;
70806;SDS011;58882;52.170;5.386;2023-09-07T02:50:56;8.68;;;5.70;;
70806;SDS011;58882;52.170;5.386;2023-09-07T02:53:25;10.00;;;5.65;;
70806;SDS011;58882;52.170;5.386;2023-09-07T02:55:52;10.95;;;5.68;;
70806;SDS011;58882;52.170;5.386;2023-09-07T02:58:18;11.35;;;5.95;;
70806;SDS011;58882;52.170;5.386;2023-09-07T03:00:46;12.90;;;5.90;;
70806;SDS011;58882;52.170;5.386;2023-09-07T03:03:16;10.77;;;6.50;;
70806;SDS011;58882;52.170;5.386;2023-09-07T03:05:44;11.15;;;6.40;;
70806;SDS011;58882;52.170;5.386;2023-09-07T03:08:12;15.10;;;5.72;;
70806;SDS011;58882;52.170;5.386;2023-09-07T03:10:39;10.35;;;5.97;;
70806;SDS011;58882;52.170;5.386;2023-09-07T03:13:07;10.43;;;5.78;;
70806;SDS011;58882;52.170;5.386;2023-09-07T03:15:35;13.77;;;6.07;;
70806;SDS011;58882;52.170;5.386;2023-09-07T03:18:05;11.38;;;5.30;;
70806;SDS011;58882;52.170;5.386;2023-09-07T03:20:33;12.00;;;6.55;;
70806;SDS011;58882;52.170;5.386;2023-09-07T03:23:01;12.55;;;5.95;;
70806;SDS011;58882;52.170;5.386;2023-09-07T03:25:29;10.43;;;6.07;;
70806;SDS011;58882;52.170;5.386;2023-09-07T03:27:56;15.10;;;5.97;;
70806;SDS011;58882;52.170;5.386;2023-09-07T03:30:23;11.00;;;6.63;;
70806;SDS011;58882;52.170;5.386;2023-09-07T03:35:19;10.80;;;5.35;;
70806;SDS011;58882;52.170;5.386;2023-09-07T03:37:46;12.02;;;5.60;;
70806;SDS011;58882;52.170;5.386;2023-09-07T03:40:13;8.50;;;5.88;;
70806;SDS011;58882;52.170;5.386;2023-09-07T03:42:41;11.57;;;5.43;;
70806;SDS011;58882;52.170;5.386;2023-09-07T03:45:09;12.38;;;6.15;;
70806;SDS011;58882;52.170;5.386;2023-09-07T03:47:37;10.63;;;5.40;;
70806;SDS011;58882;52.170;5.386;2023-09-07T03:50:04;8.57;;;5.50;;
70806;SDS011;58882;52.170;5.386;2023-09-07T03:52:32;11.13;;;6.85;;
70806;SDS011;58882;52.170;5.386;2023-09-07T03:55:01;10.15;;;6.13;;
70806;SDS011;58882;52.170;5.386;2023-09-07T03:57:28;10.38;;;6.05;;
70806;SDS011;58882;52.170;5.386;2023-09-07T03:59:56;10.70;;;5.93;;
70806;SDS011;58882;52.170;5.386;2023-09-07T04:02:23;12.20;;;5.47;;
70806;SDS011;58882;52.170;5.386;2023-09-07T04:04:52;13.88;;;6.07;;
70806;SDS011;58882;52.170;5.386;2023-09-07T04:07:20;12.02;;;5.45;;
70806;SDS011;58882;52.170;5.386;2023-09-07T04:09:47;10.25;;;5.63;;
70806;SDS011;58882;52.170;5.386;2023-09-07T04:12:14;9.15;;;5.88;;
70806;SDS011;58882;52.170;5.386;2023-09-07T04:14:41;10.50;;;5.70;;
70806;SDS011;58882;52.170;5.386;2023-09-07T04:17:09;14.45;;;5.82;;
70806;SDS011;58882;52.170;5.386;2023-09-07T04:19:36;13.13;;;5.90;;
70806;SDS011;58882;52.170;5.386;2023-09-07T04:22:03;10.20;;;5.68;;
70806;SDS011;58882;52.170;5.386;2023-09-07T04:24:29;9.35;;;5.80;;
70806;SDS011;58882;52.170;5.386;2023-09-07T04:27:00;12.63;;;5.82;;
70806;SDS011;58882;52.170;5.386;2023-09-07T04:29:29;9.90;;;5.90;;
70806;SDS011;58882;52.170;5.386;2023-09-07T04:31:56;10.10;;;6.22;;
70806;SDS011;58882;52.170;5.386;2023-09-07T04:34:23;8.90;;;6.00;;
70806;SDS011;58882;52.170;5.386;2023-09-07T04:36:52;11.20;;;6.40;;
70806;SDS011;58882;52.170;5.386;2023-09-07T04:39:19;11.40;;;6.07;;
70806;SDS011;58882;52.170;5.386;2023-09-07T04:41:46;12.50;;;6.10;;
70806;SDS011;58882;52.170;5.386;2023-09-07T04:44:14;9.43;;;5.85;;
70806;SDS011;58882;52.170;5.386;2023-09-07T04:46:41;9.80;;;5.65;;
70806;SDS011;58882;52.170;5.386;2023-09-07T04:49:09;13.07;;;6.50;;
70806;SDS011;58882;52.170;5.386;2023-09-07T04:51:36;10.63;;;6.40;;
70806;SDS011;58882;52.170;5.386;2023-09-07T04:54:03;15.95;;;6.15;;
70806;SDS011;58882;52.170;5.386;2023-09-07T04:56:30;12.18;;;6.25;;
70806;SDS011;58882;52.170;5.386;2023-09-07T04:58:57;15.70;;;6.43;;
70806;SDS011;58882;52.170;5.386;2023-09-07T05:01:25;11.13;;;6.30;;
70806;SDS011;58882;52.170;5.386;2023-09-07T05:03:54;12.40;;;6.30;;
70806;SDS011;58882;52.170;5.386;2023-09-07T05:06:21;11.73;;;6.15;;
70806;SDS011;58882;52.170;5.386;2023-09-07T05:08:50;10.65;;;6.25;;
70806;SDS011;58882;52.170;5.386;2023-09-07T05:11:17;11.45;;;5.72;;
70806;SDS011;58882;52.170;5.386;2023-09-07T05:13:44;10.48;;;5.88;;
70806;SDS011;58882;52.170;5.386;2023-09-07T05:16:11;12.18;;;6.07;;
70806;SDS011;58882;52.170;5.386;2023-09-07T05:18:40;12.75;;;6.65;;
70806;SDS011;58882;52.170;5.386;2023-09-07T05:21:12;12.35;;;6.05;;
70806;SDS011;58882;52.170;5.386;2023-09-07T05:23:40;11.68;;;5.80;;
70806;SDS011;58882;52.170;5.386;2023-09-07T05:26:07;10.40;;;6.07;;
70806;SDS011;58882;52.170;5.386;2023-09-07T05:28:34;10.02;;;6.00;;
70806;SDS011;58882;52.170;5.386;2023-09-07T05:31:01;13.93;;;7.13;;
70806;SDS011;58882;52.170;5.386;2023-09-07T05:33:28;9.70;;;6.30;;
70806;SDS011;58882;52.170;5.386;2023-09-07T05:35:55;12.10;;;6.57;;
70806;SDS011;58882;52.170;5.386;2023-09-07T05:38:22;11.18;;;6.15;;
70806;SDS011;58882;52.170;5.386;2023-09-07T05:40:49;10.68;;;5.68;;
70806;SDS011;58882;52.170;5.386;2023-09-07T05:43:21;12.10;;;6.05;;
70806;SDS011;58882;52.170;5.386;2023-09-07T05:45:48;12.57;;;6.22;;
70806;SDS011;58882;52.170;5.386;2023-09-07T05:48:16;11.07;;;5.85;;
70806;SDS011;58882;52.170;5.386;2023-09-07T05:50:44;10.93;;;6.13;;
70806;SDS011;58882;52.170;5.386;2023-09-07T05:53:12;9.13;;;5.85;;
70806;SDS011;58882;52.170;5.386;2023-09-07T05:55:39;10.73;;;5.97;;
70806;SDS011;58882;52.170;5.386;2023-09-07T05:58:07;15.25;;;5.45;;
70806;SDS011;58882;52.170;5.386;2023-09-07T06:00:38;9.85;;;5.35;;
70806;SDS011;58882;52.170;5.386;2023-09-07T06:03:07;12.10;;;6.40;;
70806;SDS011;58882;52.170;5.386;2023-09-07T06:05:35;9.32;;;5.55;;
70806;SDS011;58882;52.170;5.386;2023-09-07T06:08:04;9.63;;;5.43;;
70806;SDS011;58882;52.170;5.386;2023-09-07T06:10:33;10.30;;;5.88;;
70806;SDS011;58882;52.170;5.386;2023-09-07T06:13:01;10.18;;;5.50;;
70806;SDS011;58882;52.170;5.386;2023-09-07T06:15:30;12.60;;;5.43;;
70806;SDS011;58882;52.170;5.386;2023-09-07T06:17:57;10.20;;;5.10;;
70806;SDS011;58882;52.170;5.386;2023-09-07T06:20:24;9.85;;;6.00;;
70806;SDS011;58882;52.170;5.386;2023-09-07T06:22:52;9.07;;;5.57;;
70806;SDS011;58882;52.170;5.386;2023-09-07T06:25:19;10.10;;;5.65;;
70806;SDS011;58882;52.170;5.386;2023-09-07T06:27:48;9.90;;;5.30;;
70806;SDS011;58882;52.170;5.386;2023-09-07T06:30:15;8.98;;;5.80;;
70806;SDS011;58882;52.170;5.386;2023-09-07T06:32:42;10.10;;;5.63;;
70806;SDS011;58882;52.170;5.386;2023-09-07T06:35:10;9.27;;;5.65;;
70806;SDS011;58882;52.170;5.386;2023-09-07T06:37:37;10.25;;;6.03;;
70806;SDS011;58882;52.170;5.386;2023-09-07T06:40:07;10.88;;;5.95;;
70806;SDS011;58882;52.170;5.386;2023-09-07T06:42:37;11.55;;;5.35;;
70806;SDS011;58882;52.170;5.386;2023-09-07T06:45:09;11.80;;;5.03;;
70806;SDS011;58882;52.170;5.386;2023-09-07T06:47:37;9.40;;;5.60;;
70806;SDS011;58882;52.170;5.386;2023-09-07T06:50:05;11.55;;;5.15;;
70806;SDS011;58882;52.170;5.386;2023-09-07T06:52:32;8.38;;;4.53;;
70806;SDS011;58882;52.170;5.386;2023-09-07T06:55:00;9.98;;;4.70;;
70806;SDS011;58882;52.170;5.386;2023-09-07T06:57:27;10.02;;;5.07;;
70806;SDS011;58882;52.170;5.386;2023-09-07T06:59:54;10.15;;;5.10;;
70806;SDS011;58882;52.170;5.386;2023-09-07T07:02:21;8.18;;;5.05;;
70806;SDS011;58882;52.170;5.386;2023-09-07T07:04:48;8.65;;;5.25;;
70806;SDS011;58882;52.170;5.386;2023-09-07T07:07:16;8.50;;;4.60;;
70806;SDS011;58882;52.170;5.386;2023-09-07T07:09:44;8.25;;;4.65;;
70806;SDS011;58882;52.170;5.386;2023-09-07T07:12:11;10.40;;;4.90;;
70806;SDS011;58882;52.170;5.386;2023-09-07T07:17:06;8.23;;;4.32;;
70806;SDS011;58882;52.170;5.386;2023-09-07T07:19:34;10.23;;;4.85;;
70806;SDS011;58882;52.170;5.386;2023-09-07T07:24:30;7.53;;;4.45;;
70806;SDS011;58882;52.170;5.386;2023-09-07T07:26:57;8.30;;;4.80;;
70806;SDS011;58882;52.170;5.386;2023-09-07T07:29:24;7.05;;;4.15;;
70806;SDS011;58882;52.170;5.386;2023-09-07T07:31:51;8.23;;;4.63;;
70806;SDS011;58882;52.170;5.386;2023-09-07T07:34:18;7.70;;;4.50;;
70806;SDS011;58882;52.170;5.386;2023-09-07T07:36:46;10.73;;;4.70;;
70806;SDS011;58882;52.170;5.386;2023-09-07T07:39:12;8.40;;;4.47;;
70806;SDS011;58882;52.170;5.386;2023-09-07T07:41:39;7.55;;;4.28;;
70806;SDS011;58882;52.170;5.386;2023-09-07T07:44:09;8.35;;;4.50;;
70806;SDS011;58882;52.170;5.386;2023-09-07T07:46:36;7.43;;;4.28;;
70806;SDS011;58882;52.170;5.386;2023-09-07T07:49:03;9.15;;;4.35;;
70806;SDS011;58882;52.170;5.386;2023-09-07T07:51:30;9.20;;;4.40;;
70806;SDS011;58882;52.170;5.386;2023-09-07T07:53:57;9.02;;;4.63;;
70806;SDS011;58882;52.170;5.386;2023-09-07T07:56:24;9.70;;;4.53;;
70806;SDS011;58882;52.170;5.386;2023-09-07T07:58:53;7.22;;;4.57;;
70806;SDS011;58882;52.170;5.386;2023-09-07T08:01:20;10.77;;;5.07;;
70806;SDS011;58882;52.170;5.386;2023-09-07T08:03:50;7.25;;;4.38;;
70806;SDS011;58882;52.170;5.386;2023-09-07T08:06:18;6.82;;;4.07;;
70806;SDS011;58882;52.170;5.386;2023-09-07T08:08:45;8.02;;;4.50;;
70806;SDS011;58882;52.170;5.386;2023-09-07T08:11:13;7.85;;;4.53;;
70806;SDS011;58882;52.170;5.386;2023-09-07T08:13:41;8.27;;;4.18;;
70806;SDS011;58882;52.170;5.386;2023-09-07T08:16:10;10.60;;;4.65;;
70806;SDS011;58882;52.170;5.386;2023-09-07T08:18:40;7.47;;;4.35;;
70806;SDS011;58882;52.170;5.386;2023-09-07T08:21:08;7.43;;;4.10;;
70806;SDS011;58882;52.170;5.386;2023-09-07T08:23:36;8.20;;;4.70;;
70806;SDS011;58882;52.170;5.386;2023-09-07T08:26:03;9.65;;;4.50;;
70806;SDS011;58882;52.170;5.386;2023-09-07T08:28:32;8.80;;;4.38;;
70806;SDS011;58882;52.170;5.386;2023-09-07T08:30:59;8.07;;;4.60;;
70806;SDS011;58882;52.170;5.386;2023-09-07T08:33:26;7.45;;;4.15;;
70806;SDS011;58882;52.170;5.386;2023-09-07T08:35:56;7.88;;;4.53;;
70806;SDS011;58882;52.170;5.386;2023-09-07T08:38:23;7.65;;;4.72;;
70806;SDS011;58882;52.170;5.386;2023-09-07T08:40:55;8.10;;;4.15;;
70806;SDS011;58882;52.170;5.386;2023-09-07T08:43:27;7.55;;;4.60;;
70806;SDS011;58882;52.170;5.386;2023-09-07T08:45:57;7.78;;;4.60;;
70806;SDS011;58882;52.170;5.386;2023-09-07T08:48:31;6.88;;;4.22;;
70806;SDS011;58882;52.170;5.386;2023-09-07T08:50:59;7.72;;;4.20;;
70806;SDS011;58882;52.170;5.386;2023-09-07T08:53:27;7.15;;;3.97;;
70806;SDS011;58882;52.170;5.386;2023-09-07T08:55:56;7.82;;;4.18;;
70806;SDS011;58882;52.170;5.386;2023-09-07T08:58:24;8.48;;;4.20;;
70806;SDS011;58882;52.170;5.386;2023-09-07T09:00:51;7.10;;;4.00;;
70806;SDS011;58882;52.170;5.386;2023-09-07T09:03:19;7.35;;;4.25;;
70806;SDS011;58882;52.170;5.386;2023-09-07T09:05:46;9.15;;;4.00;;
70806;SDS011;58882;52.170;5.386;2023-09-07T09:08:16;6.97;;;4.07;;
70806;SDS011;58882;52.170;5.386;2023-09-07T09:11:01;7.53;;;3.75;;
70806;SDS011;58882;52.170;5.386;2023-09-07T09:13:31;7.18;;;4.07;;
70806;SDS011;58882;52.170;5.386;2023-09-07T09:16:03;9.65;;;3.90;;
70806;SDS011;58882;52.170;5.386;2023-09-07T09:18:30;7.32;;;3.63;;
70806;SDS011;58882;52.170;5.386;2023-09-07T09:20:57;9.02;;;3.65;;
70806;SDS011;58882;52.170;5.386;2023-09-07T09:23:32;7.05;;;4.13;;
70806;SDS011;58882;52.170;5.386;2023-09-07T09:26:00;7.72;;;3.90;;
70806;SDS011;58882;52.170;5.386;2023-09-07T09:28:33;5.70;;;3.65;;
70806;SDS011;58882;52.170;5.386;2023-09-07T09:31:01;8.32;;;3.63;;
70806;SDS011;58882;52.170;5.386;2023-09-07T09:33:32;6.25;;;3.58;;
70806;SDS011;58882;52.170;5.386;2023-09-07T09:35:59;6.63;;;3.70;;
70806;SDS011;58882;52.170;5.386;2023-09-07T09:38:27;9.43;;;3.42;;
70806;SDS011;58882;52.170;5.386;2023-09-07T09:40:54;8.82;;;4.00;;
70806;SDS011;58882;52.170;5.386;2023-09-07T09:43:21;6.20;;;3.28;;
70806;SDS011;58882;52.170;5.386;2023-09-07T09:45:48;6.75;;;3.75;;
70806;SDS011;58882;52.170;5.386;2023-09-07T09:48:20;8.00;;;3.65;;
70806;SDS011;58882;52.170;5.386;2023-09-07T09:50:49;7.10;;;3.60;;
70806;SDS011;58882;52.170;5.386;2023-09-07T09:53:17;8.23;;;3.65;;
70806;SDS011;58882;52.170;5.386;2023-09-07T09:55:47;6.35;;;3.67;;
70806;SDS011;58882;52.170;5.386;2023-09-07T09:58:15;5.38;;;3.38;;
70806;SDS011;58882;52.170;5.386;2023-09-07T10:00:42;6.53;;;3.30;;
70806;SDS011;58882;52.170;5.386;2023-09-07T10:03:16;8.20;;;3.70;;
70806;SDS011;58882;52.170;5.386;2023-09-07T10:05:50;5.65;;;3.45;;
70806;SDS011;58882;52.170;5.386;2023-09-07T10:08:17;7.28;;;3.65;;
70806;SDS011;58882;52.170;5.386;2023-09-07T10:10:49;6.32;;;3.30;;
70806;SDS011;58882;52.170;5.386;2023-09-07T10:13:29;5.35;;;3.22;;
70806;SDS011;58882;52.170;5.386;2023-09-07T10:16:00;6.88;;;3.20;;
70806;SDS011;58882;52.170;5.386;2023-09-07T10:18:34;6.03;;;3.13;;
70806;SDS011;58882;52.170;5.386;2023-09-07T10:21:05;5.95;;;3.38;;
70806;SDS011;58882;52.170;5.386;2023-09-07T10:23:39;6.22;;;3.22;;
70806;SDS011;58882;52.170;5.386;2023-09-07T10:26:15;6.25;;;3.17;;
70806;SDS011;58882;52.170;5.386;2023-09-07T10:28:43;7.88;;;3.45;;
70806;SDS011;58882;52.170;5.386;2023-09-07T10:31:15;6.55;;;3.50;;
70806;SDS011;58882;52.170;5.386;2023-09-07T10:33:46;5.45;;;3.17;;
70806;SDS011;58882;52.170;5.386;2023-09-07T10:36:25;7.50;;;3.22;;
70806;SDS011;58882;52.170;5.386;2023-09-07T10:38:54;6.07;;;3.47;;
70806;SDS011;58882;52.170;5.386;2023-09-07T10:41:22;6.88;;;3.40;;
70806;SDS011;58882;52.170;5.386;2023-09-07T10:43:49;7.18;;;3.38;;
70806;SDS011;58882;52.170;5.386;2023-09-07T10:46:21;7.88;;;3.50;;
70806;SDS011;58882;52.170;5.386;2023-09-07T10:48:49;6.72;;;3.70;;
70806;SDS011;58882;52.170;5.386;2023-09-07T10:51:20;6.57;;;3.58;;
70806;SDS011;58882;52.170;5.386;2023-09-07T10:53:47;9.93;;;3.70;;
70806;SDS011;58882;52.170;5.386;2023-09-07T10:56:14;6.75;;;3.60;;
70806;SDS011;58882;52.170;5.386;2023-09-07T10:58:41;6.70;;;3.70;;
70806;SDS011;58882;52.170;5.386;2023-09-07T11:01:09;7.50;;;3.40;;
70806;SDS011;58882;52.170;5.386;2023-09-07T11:03:37;6.32;;;3.63;;
70806;SDS011;58882;52.170;5.386;2023-09-07T11:08:32;8.00;;;3.60;;
70806;SDS011;58882;52.170;5.386;2023-09-07T11:11:02;8.93;;;3.63;;
70806;SDS011;58882;52.170;5.386;2023-09-07T11:13:29;6.05;;;3.47;;
70806;SDS011;58882;52.170;5.386;2023-09-07T11:15:57;6.20;;;3.72;;
70806;SDS011;58882;52.170;5.386;2023-09-07T11:18:25;6.80;;;3.75;;
70806;SDS011;58882;52.170;5.386;2023-09-07T11:20:53;7.93;;;3.70;;
70806;SDS011;58882;52.170;5.386;2023-09-07T11:23:20;6.50;;;3.60;;
70806;SDS011;58882;52.170;5.386;2023-09-07T11:25:49;5.45;;;3.17;;
70806;SDS011;58882;52.170;5.386;2023-09-07T11:28:19;6.63;;;3.38;;
70806;SDS011;58882;52.170;5.386;2023-09-07T11:30:52;7.78;;;3.40;;
70806;SDS011;58882;52.170;5.386;2023-09-07T11:33:24;5.22;;;3.33;;
70806;SDS011;58882;52.170;5.386;2023-09-07T11:35:51;6.65;;;3.28;;
70806;SDS011;58882;52.170;5.386;2023-09-07T11:38:21;6.97;;;3.70;;
70806;SDS011;58882;52.170;5.386;2023-09-07T11:40:48;7.03;;;3.42;;
70806;SDS011;58882;52.170;5.386;2023-09-07T11:43:15;5.35;;;3.30;;
70806;SDS011;58882;52.170;5.386;2023-09-07T11:45:46;8.52;;;3.30;;
70806;SDS011;58882;52.170;5.386;2023-09-07T11:48:13;6.80;;;3.58;;
70806;SDS011;58882;52.170;5.386;2023-09-07T11:50:41;5.70;;;3.42;;
70806;SDS011;58882;52.170;5.386;2023-09-07T11:53:08;8.25;;;3.78;;
70806;SDS011;58882;52.170;5.386;2023-09-07T11:55:35;6.18;;;3.45;;
70806;SDS011;58882;52.170;5.386;2023-09-07T11:58:03;5.93;;;3.80;;
70806;SDS011;58882;52.170;5.386;2023-09-07T12:00:33;5.90;;;3.65;;
70806;SDS011;58882;52.170;5.386;2023-09-07T12:03:00;7.25;;;3.65;;
70806;SDS011;58882;52.170;5.386;2023-09-07T12:05:27;7.50;;;3.80;;
70806;SDS011;58882;52.170;5.386;2023-09-07T12:07:54;6.03;;;3.38;;
70806;SDS011;58882;52.170;5.386;2023-09-07T12:10:21;7.20;;;3.88;;
70806;SDS011;58882;52.170;5.386;2023-09-07T12:12:48;7.35;;;3.55;;
70806;SDS011;58882;52.170;5.386;2023-09-07T12:15:15;5.90;;;3.33;;
70806;SDS011;58882;52.170;5.386;2023-09-07T12:17:42;7.10;;;3.50;;
70806;SDS011;58882;52.170;5.386;2023-09-07T12:20:09;6.20;;;3.60;;
70806;SDS011;58882;52.170;5.386;2023-09-07T12:22:37;6.80;;;3.75;;
70806;SDS011;58882;52.170;5.386;2023-09-07T12:25:07;6.60;;;3.58;;
70806;SDS011;58882;52.170;5.386;2023-09-07T12:27:41;6.15;;;3.65;;
70806;SDS011;58882;52.170;5.386;2023-09-07T12:30:16;7.68;;;3.60;;
70806;SDS011;58882;52.170;5.386;2023-09-07T12:32:45;6.43;;;3.60;;
70806;SDS011;58882;52.170;5.386;2023-09-07T12:35:12;6.85;;;3.53;;
70806;SDS011;58882;52.170;5.386;2023-09-07T12:37:38;7.18;;;3.60;;
70806;SDS011;58882;52.170;5.386;2023-09-07T12:40:05;5.55;;;3.47;;
70806;SDS011;58882;52.170;5.386;2023-09-07T12:42:41;6.28;;;3.63;;
70806;SDS011;58882;52.170;5.386;2023-09-07T12:45:09;5.90;;;3.60;;
70806;SDS011;58882;52.170;5.386;2023-09-07T12:47:41;10.40;;;3.53;;
70806;SDS011;58882;52.170;5.386;2023-09-07T12:50:08;45.92;;;5.20;;
70806;SDS011;58882;52.170;5.386;2023-09-07T12:52:35;35.00;;;4.80;;
70806;SDS011;58882;52.170;5.386;2023-09-07T12:55:05;25.27;;;4.40;;
70806;SDS011;58882;52.170;5.386;2023-09-07T12:57:33;33.47;;;4.43;;
70806;SDS011;58882;52.170;5.386;2023-09-07T13:00:01;16.88;;;3.75;;
70806;SDS011;58882;52.170;5.386;2023-09-07T13:02:33;11.40;;;3.50;;
70806;SDS011;58882;52.170;5.386;2023-09-07T13:05:01;12.32;;;3.60;;
70806;SDS011;58882;52.170;5.386;2023-09-07T13:07:32;10.27;;;3.72;;
70806;SDS011;58882;52.170;5.386;2023-09-07T13:09:59;9.45;;;3.78;;
70806;SDS011;58882;52.170;5.386;2023-09-07T13:12:28;12.40;;;3.60;;
70806;SDS011;58882;52.170;5.386;2023-09-07T13:14:55;9.10;;;3.42;;
70806;SDS011;58882;52.170;5.386;2023-09-07T13:17:22;9.38;;;3.58;;
70806;SDS011;58882;52.170;5.386;2023-09-07T13:19:48;6.68;;;3.60;;
70806;SDS011;58882;52.170;5.386;2023-09-07T13:22:16;7.10;;;3.72;;
70806;SDS011;58882;52.170;5.386;2023-09-07T13:24:43;7.45;;;3.35;;
70806;SDS011;58882;52.170;5.386;2023-09-07T13:27:10;6.82;;;3.30;;
70806;SDS011;58882;52.170;5.386;2023-09-07T13:29:37;9.05;;;3.53;;
70806;SDS011;58882;52.170;5.386;2023-09-07T13:32:04;13.35;;;4.50;;
70806;SDS011;58882;52.170;5.386;2023-09-07T13:34:31;6.75;;;3.55;;
70806;SDS011;58882;52.170;5.386;2023-09-07T13:36:58;5.93;;;3.33;;
70806;SDS011;58882;52.170;5.386;2023-09-07T13:39:25;7.47;;;3.90;;
70806;SDS011;58882;52.170;5.386;2023-09-07T13:41:52;7.88;;;3.72;;
70806;SDS011;58882;52.170;5.386;2023-09-07T13:44:19;5.97;;;3.58;;
70806;SDS011;58882;52.170;5.386;2023-09-07T13:46:45;10.45;;;4.10;;
70806;SDS011;58882;52.170;5.386;2023-09-07T13:49:13;6.15;;;3.25;;
70806;SDS011;58882;52.170;5.386;2023-09-07T13:51:40;6.18;;;3.75;;
70806;SDS011;58882;52.170;5.386;2023-09-07T13:54:07;7.13;;;3.72;;
70806;SDS011;58882;52.170;5.386;2023-09-07T13:59:03;7.43;;;3.90;;
70806;SDS011;58882;52.170;5.386;2023-09-07T14:03:58;6.72;;;3.60;;
70806;SDS011;58882;52.170;5.386;2023-09-07T14:06:26;7.28;;;3.67;;
70806;SDS011;58882;52.170;5.386;2023-09-07T14:08:53;7.50;;;3.67;;
70806;SDS011;58882;52.170;5.386;2023-09-07T14:11:20;6.53;;;3.90;;
70806;SDS011;58882;52.170;5.386;2023-09-07T14:13:47;6.68;;;3.90;;
70806;SDS011;58882;52.170;5.386;2023-09-07T14:16:16;7.82;;;3.78;;
70806;SDS011;58882;52.170;5.386;2023-09-07T14:18:44;8.32;;;4.03;;
70806;SDS011;58882;52.170;5.386;2023-09-07T14:21:13;6.63;;;3.55;;
70806;SDS011;58882;52.170;5.386;2023-09-07T14:23:41;9.32;;;3.42;;
70806;SDS011;58882;52.170;5.386;2023-09-07T14:28:35;7.18;;;3.67;;
70806;SDS011;58882;52.170;5.386;2023-09-07T14:31:04;6.82;;;3.58;;
70806;SDS011;58882;52.170;5.386;2023-09-07T14:33:35;6.32;;;3.88;;
70806;SDS011;58882;52.170;5.386;2023-09-07T14:36:08;9.88;;;3.85;;
70806;SDS011;58882;52.170;5.386;2023-09-07T14:38:35;8.27;;;4.07;;
70806;SDS011;58882;52.170;5.386;2023-09-07T14:41:29;6.90;;;3.72;;
70806;SDS011;58882;52.170;5.386;2023-09-07T14:43:57;7.10;;;3.38;;
70806;SDS011;58882;52.170;5.386;2023-09-07T14:46:23;7.28;;;3.72;;
70806;SDS011;58882;52.170;5.386;2023-09-07T14:48:51;8.02;;;4.03;;
70806;SDS011;58882;52.170;5.386;2023-09-07T14:51:18;7.72;;;3.92;;
70806;SDS011;58882;52.170;5.386;2023-09-07T14:53:45;5.75;;;3.70;;
70806;SDS011;58882;52.170;5.386;2023-09-07T14:56:12;7.90;;;3.80;;
70806;SDS011;58882;52.170;5.386;2023-09-07T14:58:39;6.30;;;3.70;;
70806;SDS011;58882;52.170;5.386;2023-09-07T15:01:06;9.93;;;4.03;;
70806;SDS011;58882;52.170;5.386;2023-09-07T15:03:33;7.18;;;3.92;;
70806;SDS011;58882;52.170;5.386;2023-09-07T15:06:06;7.82;;;4.03;;